View Sortable Currents For Network
ASOSAWOSCoCoRaHSCOOPDCPISUSM
SchoolNetOtherSCANMy FavoritesBy StateRWIS
RWIS SurfaceRWIS TrafficRWIS SoilBy NWS WFOUSCRN

Current RWIS Surface Conditions

** This page will automatically refresh every 10 minutes.
Click on a column to sort it.

Sorted by: Observation Time

ADD: Station: Ob Time Air: Sensor 1 Sensor 2 Sensor 3 Sensor 4    
Temp Dew P Temp Temp Temp Temp Sub T Ave Surface Temp [1]
Bedford02:40 AM46.22 46.22 57.2 57.4 M M M 0
Urbana (I-380)03:45 AM46.22 44.96 51.1 48.9 48.7 M M 0
New Hampton (US 18)03:50 AM51.08 49.82 55.2 57.6 M M M 0
Ames (I-35)03:50 AM50.9 49.46 M M M M M 0
Estherville - Hwy 903:50 AM56.84 53.6 M M M M M 0
Tama03:50 AM44.78 -76.36 48.9 M M M M 0
Elkhart I-35 No203:50 AMM M M M M M M 0
Elkhart I-35 No103:50 AMM M M M M M M 0
Anamosa (US 151)03:50 AM45.5 43.88 50.2 48.2 52.9 M M 0
Ida Grove (US 59)03:50 AM59.54 38.48 62.4 63 62.2 M M 0
Sibley03:50 AM55.22 56.5 58.3 58.1 M M 0
Cambridge I-3503:50 AMM M M M M M M 0
Algona (US 18)03:50 AM52.7 42.8 59.4 M M M M 0
Altoona (I-80/US 65)03:50 AM51.26 50.18 55 55.8 55.2 M M 0
Colfax - I-8003:50 AM48.92 48.38 53.8 54 54.1 M M 0
Quad Cities03:50 AM46.22 44.96 M M M M M 0
Centerville (IA 2)03:50 AM48.92 48.2 53.2 50.9 M M M 0
Plainfield03:50 AM49.28 21.02 52.9 52.3 M M M 0
Rockwell City03:50 AM52.88 41 58.5 59 M M M 0
Cantril03:50 AM52.34 43.52 57.6 56.3 M M M 0
Sigourney (IA 92)03:50 AM44.6 52.5 52.2 50.7 M M 0
Hanlontown (I-35)03:50 AM51.8 50.54 58.3 57.2 M M M 0
Cedar Rapids (I-380)03:50 AM50.18 46.76 51.8 M 52.7 53.6 M 0
Alton (IA10)03:50 AM57.56 50.36 61 61.2 M M M 0
Williamsburg (I-80)03:50 AM45.5 44.42 51.3 49.5 50.5 M M 0
Council Bluffs No203:50 AM53.06 50.18 55.4 57.6 M M M 0
Tipton (I-80)03:50 AM43.16 41.36 49.8 50 M M M 0
Mason City (I-35)03:50 AM52.16 49.28 57.4 59 56.8 M M 0
Avoca (I-80)03:50 AM49.1 -3.28 55 55.2 56.1 M M 0
Burlington (US 34)03:50 AM52.7 52.7 54.5 54.1 55 M M 0
Carroll (US 30)03:50 AM54.32 48.02 58.6 56.5 57 M M 0
Cedar Rapids (US 30)03:50 AM49.1 47.3 M 50.9 52.7 M M 0
Moville03:50 AM56.3 45.86 59.9 60.6 M M M 0
Williams (I-35)03:50 AM52.52 50.36 56.7 56.3 M M M 0
Waterloo (US 20)03:50 AM73.76 39.38 92.3 M 99 91.9 M 0
Council Bluffs (I-80)03:50 AM56.66 56.3 59.5 M M M M 0
Storm Lake (US 71/IA 3)03:51 AM55.58 44.06 60.4 59.4 M M M 0
Creston (US 34)03:51 AM50.36 47.66 53.1 52.7 M M M 0
Spencer (US 18)03:51 AM58.46 45.32 61.7 63 M M M 0
Pella (IA 163)03:51 AM44.06 42.8 50.7 48.9 48 M M 0
Fort Dodge (US 20)03:52 AM55.04 49.46 56.8 57.4 57.9 M M 0
Grinnell (I-80)03:52 AM48.92 48.2 51.6 50.5 49.3 50.9 M 50.6
Decorah (IA 9)03:52 AM63.32 62.42 52.3 52.5 M M M 0
Davenport (I-80/I-280)03:52 AM44.96 41.18 49.3 M M 56.3 M 0
Sidney (I-29/IA 2)03:52 AM57.38 55.22 M 60.4 61 59.7 M 0
Iowa City (I-80)03:52 AMM M 52.5 52 M M M 0
De Soto (I-80/US 169)03:52 AM51.98 51.44 M 55.9 54.1 54.5 M 0
Iowa City (US 218)03:52 AM46.04 46.04 50.9 51.4 50.4 M M 0
Des Moines (I-235)03:52 AM53.6 50.54 56.1 55.4 M M M 0
Maquoketa (US 61/IA 64)03:53 AM43.16 40.46 52.3 51.4 50.2 51.4 M 51.4
Osceola (I-35)03:53 AM50.36 50.18 53.1 51.4 55 M M 0
Mount Pleasant (US 218)03:53 AM49.64 48.38 56.8 M M M M 0
Ottumwa (US 63)03:53 AM51.62 50 55.2 54.3 53.8 M M 0
Marshalltown (US 30)03:53 AM49.1 48.56 51.6 51.6 50.7 M M 0
Leon (I-35)/IA 2)03:53 AM50.36 49.46 53.8 54 51.8 M M 0
Sloan I-2903:53 AM56.48 41.36 64.9 61.5 M M M 0
Missouri Valley (I-29)03:53 AM54.14 51.8 59.2 60.3 60.4 M M 0
Jefferson (IA 4)03:53 AM51.44 49.46 56.1 57.2 M M M 0
Manchester (US 20)03:53 AM43.7 40.82 7.5 49.6 51.4 49.5 M 7.5
Steamboat Rock (US20)03:54 AM51.8 50.18 53.8 52.7 52.7 M M 0
Denison03:54 AM51.26 43.34 56.8 58.1 M M M 0
Red Oak (US 34/US 71)03:54 AM51.26 51.08 56.1 M 57.7 M M 0
Hawkeye03:55 AM46.58 42.98 50.9 51.4 M M M 0
Victor03:55 AM48.38 197.24 50.9 51.4 49.8 52.5 M 51.2
Granger03:55 AM89.06 M M M M M 0
Des Moines (I-35)03:55 AM49.28 47.66 58.6 53.8 54 55.4 M 55.4
Saratoga03:55 AM51.98 49.82 56.5 57 M M M 0
Ankeny (I-35)03:56 AM51.98 51.26 55 55.4 54.7 M M 0
Dubuque (US 20)03:56 AM45.68 44.24 51.6 51.3 51.3 M M 0
De Witt (US 30/US 61)03:56 AM43.7 43.52 50.2 M 48.9 M M 0


Notes:
1 The average surface temperature is calculated by the IEM using some logic to account for sites without 4 sensors or broken sensors.